sensor_id;sensor_type;location;lat;lon;timestamp;temperature;humidity
80220;DHT22;70247;37.958;23.722;2023-11-18T00:01:08;20.80;59.30
80220;DHT22;70247;37.958;23.722;2023-11-18T00:03:34;20.70;59.00
80220;DHT22;70247;37.958;23.722;2023-11-18T00:06:00;20.60;59.50
80220;DHT22;70247;37.958;23.722;2023-11-18T00:08:25;20.70;59.60
80220;DHT22;70247;37.958;23.722;2023-11-18T00:10:51;20.60;59.80
80220;DHT22;70247;37.958;23.722;2023-11-18T00:13:16;20.70;59.90
80220;DHT22;70247;37.958;23.722;2023-11-18T00:15:42;20.60;59.30
80220;DHT22;70247;37.958;23.722;2023-11-18T00:18:11;20.70;59.50
80220;DHT22;70247;37.958;23.722;2023-11-18T00:20:37;20.60;59.50
80220;DHT22;70247;37.958;23.722;2023-11-18T00:23:02;20.60;59.60
80220;DHT22;70247;37.958;23.722;2023-11-18T00:25:30;20.70;59.20
80220;DHT22;70247;37.958;23.722;2023-11-18T00:27:55;20.60;59.60
80220;DHT22;70247;37.958;23.722;2023-11-18T00:30:21;20.60;59.70
80220;DHT22;70247;37.958;23.722;2023-11-18T00:32:47;20.80;58.60
80220;DHT22;70247;37.958;23.722;2023-11-18T00:35:13;20.80;58.50
80220;DHT22;70247;37.958;23.722;2023-11-18T00:37:40;20.80;58.60
80220;DHT22;70247;37.958;23.722;2023-11-18T00:40:06;20.80;58.30
80220;DHT22;70247;37.958;23.722;2023-11-18T00:42:32;20.90;58.20
80220;DHT22;70247;37.958;23.722;2023-11-18T00:44:58;20.90;58.50
80220;DHT22;70247;37.958;23.722;2023-11-18T00:47:24;20.90;58.00
80220;DHT22;70247;37.958;23.722;2023-11-18T00:49:49;20.90;57.20
80220;DHT22;70247;37.958;23.722;2023-11-18T00:52:17;21.00;57.50
80220;DHT22;70247;37.958;23.722;2023-11-18T00:54:43;21.10;56.50
80220;DHT22;70247;37.958;23.722;2023-11-18T00:57:09;21.10;56.30
80220;DHT22;70247;37.958;23.722;2023-11-18T00:59:34;21.20;55.50
80220;DHT22;70247;37.958;23.722;2023-11-18T01:02:00;21.20;55.20
80220;DHT22;70247;37.958;23.722;2023-11-18T01:04:28;21.30;55.20
80220;DHT22;70247;37.958;23.722;2023-11-18T01:06:54;21.30;54.60
80220;DHT22;70247;37.958;23.722;2023-11-18T01:09:19;21.30;54.80
80220;DHT22;70247;37.958;23.722;2023-11-18T01:11:45;21.20;54.90
80220;DHT22;70247;37.958;23.722;2023-11-18T01:14:11;21.20;54.40
80220;DHT22;70247;37.958;23.722;2023-11-18T01:16:37;21.20;54.20
80220;DHT22;70247;37.958;23.722;2023-11-18T01:19:03;21.30;53.80
80220;DHT22;70247;37.958;23.722;2023-11-18T01:21:28;21.30;53.60
80220;DHT22;70247;37.958;23.722;2023-11-18T01:23:54;21.40;53.20
80220;DHT22;70247;37.958;23.722;2023-11-18T01:26:20;21.60;53.30
80220;DHT22;70247;37.958;23.722;2023-11-18T01:28:47;21.60;53.40
80220;DHT22;70247;37.958;23.722;2023-11-18T01:31:12;21.60;53.60
80220;DHT22;70247;37.958;23.722;2023-11-18T01:33:39;21.60;53.60
80220;DHT22;70247;37.958;23.722;2023-11-18T01:36:08;21.60;53.30
80220;DHT22;70247;37.958;23.722;2023-11-18T01:38:34;21.60;53.20
80220;DHT22;70247;37.958;23.722;2023-11-18T01:40:59;21.60;53.30
80220;DHT22;70247;37.958;23.722;2023-11-18T01:43:26;21.60;53.30
80220;DHT22;70247;37.958;23.722;2023-11-18T01:45:51;21.70;53.50
80220;DHT22;70247;37.958;23.722;2023-11-18T01:48:19;21.60;53.80
80220;DHT22;70247;37.958;23.722;2023-11-18T01:50:45;21.60;53.40
80220;DHT22;70247;37.958;23.722;2023-11-18T01:53:12;21.50;53.70
80220;DHT22;70247;37.958;23.722;2023-11-18T01:55:39;21.50;54.00
80220;DHT22;70247;37.958;23.722;2023-11-18T01:58:05;21.60;54.10
80220;DHT22;70247;37.958;23.722;2023-11-18T02:00:35;21.50;53.80
80220;DHT22;70247;37.958;23.722;2023-11-18T02:03:04;21.50;53.40
80220;DHT22;70247;37.958;23.722;2023-11-18T02:05:30;21.60;53.30
80220;DHT22;70247;37.958;23.722;2023-11-18T02:07:58;21.70;52.50
80220;DHT22;70247;37.958;23.722;2023-11-18T02:10:26;21.90;52.20
80220;DHT22;70247;37.958;23.722;2023-11-18T02:13:36;21.80;51.50
80220;DHT22;70247;37.958;23.722;2023-11-18T02:15:37;21.80;51.20
80220;DHT22;70247;37.958;23.722;2023-11-18T02:18:04;21.90;51.50
80220;DHT22;70247;37.958;23.722;2023-11-18T02:20:31;21.90;51.70
80220;DHT22;70247;37.958;23.722;2023-11-18T02:22:57;21.90;51.80
80220;DHT22;70247;37.958;23.722;2023-11-18T02:25:24;21.80;52.40
80220;DHT22;70247;37.958;23.722;2023-11-18T02:27:52;21.80;53.00
80220;DHT22;70247;37.958;23.722;2023-11-18T02:30:18;21.70;53.50
80220;DHT22;70247;37.958;23.722;2023-11-18T02:35:23;21.60;53.50
80220;DHT22;70247;37.958;23.722;2023-11-18T02:37:51;21.60;53.70
80220;DHT22;70247;37.958;23.722;2023-11-18T02:40:19;21.60;54.20
80220;DHT22;70247;37.958;23.722;2023-11-18T02:42:45;21.70;53.70
80220;DHT22;70247;37.958;23.722;2023-11-18T02:45:11;21.70;53.40
80220;DHT22;70247;37.958;23.722;2023-11-18T02:47:44;21.80;53.50
80220;DHT22;70247;37.958;23.722;2023-11-18T02:50:10;21.80;53.30
80220;DHT22;70247;37.958;23.722;2023-11-18T02:52:36;21.80;53.40
80220;DHT22;70247;37.958;23.722;2023-11-18T02:55:06;21.60;53.70
80220;DHT22;70247;37.958;23.722;2023-11-18T02:57:33;21.60;54.00
80220;DHT22;70247;37.958;23.722;2023-11-18T02:59:59;21.60;54.00
80220;DHT22;70247;37.958;23.722;2023-11-18T03:02:28;21.60;53.50
80220;DHT22;70247;37.958;23.722;2023-11-18T03:04:59;21.80;52.80
80220;DHT22;70247;37.958;23.722;2023-11-18T03:07:25;21.80;52.50
80220;DHT22;70247;37.958;23.722;2023-11-18T03:09:55;21.80;52.80
80220;DHT22;70247;37.958;23.722;2023-11-18T03:12:25;21.80;52.80
80220;DHT22;70247;37.958;23.722;2023-11-18T03:14:53;21.90;53.00
80220;DHT22;70247;37.958;23.722;2023-11-18T03:17:19;22.00;52.40
80220;DHT22;70247;37.958;23.722;2023-11-18T03:19:45;21.90;53.40
80220;DHT22;70247;37.958;23.722;2023-11-18T03:22:11;21.80;53.90
80220;DHT22;70247;37.958;23.722;2023-11-18T03:24:38;21.70;52.90
80220;DHT22;70247;37.958;23.722;2023-11-18T03:27:04;21.80;52.60
80220;DHT22;70247;37.958;23.722;2023-11-18T03:29:29;21.80;52.40
80220;DHT22;70247;37.958;23.722;2023-11-18T03:31:55;21.80;53.00
80220;DHT22;70247;37.958;23.722;2023-11-18T03:34:21;21.80;52.60
80220;DHT22;70247;37.958;23.722;2023-11-18T03:36:47;21.70;52.10
80220;DHT22;70247;37.958;23.722;2023-11-18T03:39:13;21.80;52.70
80220;DHT22;70247;37.958;23.722;2023-11-18T03:41:39;21.70;53.30
80220;DHT22;70247;37.958;23.722;2023-11-18T03:44:05;21.70;54.00
80220;DHT22;70247;37.958;23.722;2023-11-18T03:46:30;21.60;54.00
80220;DHT22;70247;37.958;23.722;2023-11-18T03:48:59;21.50;53.80
80220;DHT22;70247;37.958;23.722;2023-11-18T03:51:25;21.40;54.40
80220;DHT22;70247;37.958;23.722;2023-11-18T03:53:50;21.30;54.80
80220;DHT22;70247;37.958;23.722;2023-11-18T03:56:16;21.30;54.40
80220;DHT22;70247;37.958;23.722;2023-11-18T03:58:43;21.30;54.10
80220;DHT22;70247;37.958;23.722;2023-11-18T04:01:09;21.30;54.10
80220;DHT22;70247;37.958;23.722;2023-11-18T04:03:36;21.20;54.60
80220;DHT22;70247;37.958;23.722;2023-11-18T04:06:02;21.20;54.10
80220;DHT22;70247;37.958;23.722;2023-11-18T04:08:29;21.20;53.60
80220;DHT22;70247;37.958;23.722;2023-11-18T04:10:54;21.30;53.80
80220;DHT22;70247;37.958;23.722;2023-11-18T04:13:20;21.20;54.20
80220;DHT22;70247;37.958;23.722;2023-11-18T04:15:45;21.30;53.60
80220;DHT22;70247;37.958;23.722;2023-11-18T04:18:11;21.30;53.60
80220;DHT22;70247;37.958;23.722;2023-11-18T04:20:36;21.20;53.60
80220;DHT22;70247;37.958;23.722;2023-11-18T04:23:02;21.30;53.30
80220;DHT22;70247;37.958;23.722;2023-11-18T04:25:27;21.40;53.00
80220;DHT22;70247;37.958;23.722;2023-11-18T04:27:53;21.10;53.00
80220;DHT22;70247;37.958;23.722;2023-11-18T04:30:19;21.10;52.60
80220;DHT22;70247;37.958;23.722;2023-11-18T04:32:44;21.20;52.90
80220;DHT22;70247;37.958;23.722;2023-11-18T04:35:10;21.30;52.60
80220;DHT22;70247;37.958;23.722;2023-11-18T04:37:37;21.20;52.80
80220;DHT22;70247;37.958;23.722;2023-11-18T04:40:03;21.10;53.10
80220;DHT22;70247;37.958;23.722;2023-11-18T04:42:29;21.20;52.90
80220;DHT22;70247;37.958;23.722;2023-11-18T04:44:58;21.20;53.10
80220;DHT22;70247;37.958;23.722;2023-11-18T04:47:24;21.20;52.50
80220;DHT22;70247;37.958;23.722;2023-11-18T04:49:52;21.20;52.20
80220;DHT22;70247;37.958;23.722;2023-11-18T04:52:18;21.30;52.50
80220;DHT22;70247;37.958;23.722;2023-11-18T04:54:44;21.40;52.50
80220;DHT22;70247;37.958;23.722;2023-11-18T04:57:09;21.50;52.80
80220;DHT22;70247;37.958;23.722;2023-11-18T04:59:35;21.30;51.90
80220;DHT22;70247;37.958;23.722;2023-11-18T05:02:01;21.40;52.10
80220;DHT22;70247;37.958;23.722;2023-11-18T05:04:28;21.40;51.80
80220;DHT22;70247;37.958;23.722;2023-11-18T05:06:53;21.40;52.00
80220;DHT22;70247;37.958;23.722;2023-11-18T05:09:19;21.40;50.70
80220;DHT22;70247;37.958;23.722;2023-11-18T05:11:44;21.30;50.90
80220;DHT22;70247;37.958;23.722;2023-11-18T05:14:10;21.30;50.40
80220;DHT22;70247;37.958;23.722;2023-11-18T05:16:36;21.20;49.80
80220;DHT22;70247;37.958;23.722;2023-11-18T05:19:02;21.30;49.80
80220;DHT22;70247;37.958;23.722;2023-11-18T05:21:28;21.20;49.80
80220;DHT22;70247;37.958;23.722;2023-11-18T05:23:53;20.90;50.70
80220;DHT22;70247;37.958;23.722;2023-11-18T05:26:19;21.00;50.60
80220;DHT22;70247;37.958;23.722;2023-11-18T05:28:44;21.10;50.80
80220;DHT22;70247;37.958;23.722;2023-11-18T05:31:10;21.10;50.60
80220;DHT22;70247;37.958;23.722;2023-11-18T05:33:36;21.20;50.60
80220;DHT22;70247;37.958;23.722;2023-11-18T05:36:02;21.20;50.00
80220;DHT22;70247;37.958;23.722;2023-11-18T05:38:30;21.10;49.70
80220;DHT22;70247;37.958;23.722;2023-11-18T05:41:00;21.10;48.90
80220;DHT22;70247;37.958;23.722;2023-11-18T05:43:28;21.10;48.40
80220;DHT22;70247;37.958;23.722;2023-11-18T05:46:04;21.00;47.60
80220;DHT22;70247;37.958;23.722;2023-11-18T05:48:51;20.90;47.60
80220;DHT22;70247;37.958;23.722;2023-11-18T05:51:24;20.70;46.70
80220;DHT22;70247;37.958;23.722;2023-11-18T05:53:50;20.70;47.30
80220;DHT22;70247;37.958;23.722;2023-11-18T05:56:17;20.80;46.30
80220;DHT22;70247;37.958;23.722;2023-11-18T05:58:43;20.90;46.90
80220;DHT22;70247;37.958;23.722;2023-11-18T06:01:12;20.90;46.10
80220;DHT22;70247;37.958;23.722;2023-11-18T06:03:38;21.00;46.20
80220;DHT22;70247;37.958;23.722;2023-11-18T06:06:05;21.20;45.20
80220;DHT22;70247;37.958;23.722;2023-11-18T06:08:32;21.10;45.20
80220;DHT22;70247;37.958;23.722;2023-11-18T06:10:58;21.20;45.10
80220;DHT22;70247;37.958;23.722;2023-11-18T06:13:24;21.00;44.50
80220;DHT22;70247;37.958;23.722;2023-11-18T06:15:49;21.00;44.40
80220;DHT22;70247;37.958;23.722;2023-11-18T06:18:17;20.70;44.30
80220;DHT22;70247;37.958;23.722;2023-11-18T06:20:43;20.60;45.20
80220;DHT22;70247;37.958;23.722;2023-11-18T06:23:09;20.50;46.80
80220;DHT22;70247;37.958;23.722;2023-11-18T06:25:35;20.40;46.60
80220;DHT22;70247;37.958;23.722;2023-11-18T06:28:01;20.30;46.00
80220;DHT22;70247;37.958;23.722;2023-11-18T06:30:27;20.30;46.80
80220;DHT22;70247;37.958;23.722;2023-11-18T06:32:53;20.30;48.70
80220;DHT22;70247;37.958;23.722;2023-11-18T06:35:18;20.20;49.00
80220;DHT22;70247;37.958;23.722;2023-11-18T06:37:46;20.30;47.80
80220;DHT22;70247;37.958;23.722;2023-11-18T06:40:12;20.50;47.10
80220;DHT22;70247;37.958;23.722;2023-11-18T06:42:46;20.70;46.80
80220;DHT22;70247;37.958;23.722;2023-11-18T06:45:13;20.90;47.50
80220;DHT22;70247;37.958;23.722;2023-11-18T06:47:38;20.90;46.90
80220;DHT22;70247;37.958;23.722;2023-11-18T06:50:09;20.80;46.80
80220;DHT22;70247;37.958;23.722;2023-11-18T06:52:37;20.60;47.20
80220;DHT22;70247;37.958;23.722;2023-11-18T06:55:04;20.60;47.30
80220;DHT22;70247;37.958;23.722;2023-11-18T06:57:29;20.30;47.60
80220;DHT22;70247;37.958;23.722;2023-11-18T06:59:55;20.30;48.60
80220;DHT22;70247;37.958;23.722;2023-11-18T07:02:21;19.90;49.30
80220;DHT22;70247;37.958;23.722;2023-11-18T07:04:46;19.80;49.80
80220;DHT22;70247;37.958;23.722;2023-11-18T07:07:12;19.90;50.80
80220;DHT22;70247;37.958;23.722;2023-11-18T07:09:38;19.80;50.20
80220;DHT22;70247;37.958;23.722;2023-11-18T07:12:04;20.00;49.90
80220;DHT22;70247;37.958;23.722;2023-11-18T07:14:30;20.00;49.30
80220;DHT22;70247;37.958;23.722;2023-11-18T07:16:56;20.00;48.90
80220;DHT22;70247;37.958;23.722;2023-11-18T07:19:21;19.70;48.80
80220;DHT22;70247;37.958;23.722;2023-11-18T07:21:47;19.70;48.70
80220;DHT22;70247;37.958;23.722;2023-11-18T07:24:13;19.70;48.80
80220;DHT22;70247;37.958;23.722;2023-11-18T07:26:39;19.50;49.50
80220;DHT22;70247;37.958;23.722;2023-11-18T07:29:04;19.70;49.10
80220;DHT22;70247;37.958;23.722;2023-11-18T07:31:33;20.10;49.00
80220;DHT22;70247;37.958;23.722;2023-11-18T07:34:02;20.30;48.80
80220;DHT22;70247;37.958;23.722;2023-11-18T07:36:28;20.10;48.50
80220;DHT22;70247;37.958;23.722;2023-11-18T07:38:53;20.00;46.90
80220;DHT22;70247;37.958;23.722;2023-11-18T07:41:20;19.90;46.00
80220;DHT22;70247;37.958;23.722;2023-11-18T07:43:55;19.90;46.20
80220;DHT22;70247;37.958;23.722;2023-11-18T07:46:24;20.20;45.50
80220;DHT22;70247;37.958;23.722;2023-11-18T07:48:50;20.40;44.30
80220;DHT22;70247;37.958;23.722;2023-11-18T07:51:17;20.20;44.20
80220;DHT22;70247;37.958;23.722;2023-11-18T07:53:43;20.60;44.40
80220;DHT22;70247;37.958;23.722;2023-11-18T07:56:11;20.60;44.00
80220;DHT22;70247;37.958;23.722;2023-11-18T07:58:38;20.50;43.40
80220;DHT22;70247;37.958;23.722;2023-11-18T08:01:04;20.70;43.60
80220;DHT22;70247;37.958;23.722;2023-11-18T08:03:33;20.80;43.10
80220;DHT22;70247;37.958;23.722;2023-11-18T08:05:58;20.90;43.00
80220;DHT22;70247;37.958;23.722;2023-11-18T08:08:24;21.10;43.70
80220;DHT22;70247;37.958;23.722;2023-11-18T08:10:49;21.10;42.70
80220;DHT22;70247;37.958;23.722;2023-11-18T08:13:15;21.20;43.60
80220;DHT22;70247;37.958;23.722;2023-11-18T08:15:42;21.00;42.60
80220;DHT22;70247;37.958;23.722;2023-11-18T08:18:07;20.90;42.50
80220;DHT22;70247;37.958;23.722;2023-11-18T08:20:35;20.90;42.60
80220;DHT22;70247;37.958;23.722;2023-11-18T08:23:01;20.50;43.30
80220;DHT22;70247;37.958;23.722;2023-11-18T08:25:27;20.00;43.70
80220;DHT22;70247;37.958;23.722;2023-11-18T08:27:52;19.50;43.90
80220;DHT22;70247;37.958;23.722;2023-11-18T08:30:18;18.90;45.10
80220;DHT22;70247;37.958;23.722;2023-11-18T08:32:46;18.70;46.70
80220;DHT22;70247;37.958;23.722;2023-11-18T08:35:12;18.50;46.30
80220;DHT22;70247;37.958;23.722;2023-11-18T08:37:41;18.40;46.10
80220;DHT22;70247;37.958;23.722;2023-11-18T08:40:08;18.20;46.80
80220;DHT22;70247;37.958;23.722;2023-11-18T08:42:48;18.30;46.90
80220;DHT22;70247;37.958;23.722;2023-11-18T08:45:18;18.30;47.30
80220;DHT22;70247;37.958;23.722;2023-11-18T08:47:44;18.50;47.60
80220;DHT22;70247;37.958;23.722;2023-11-18T08:50:12;18.90;47.00
80220;DHT22;70247;37.958;23.722;2023-11-18T08:52:38;19.30;45.10
80220;DHT22;70247;37.958;23.722;2023-11-18T08:55:11;19.70;45.20
80220;DHT22;70247;37.958;23.722;2023-11-18T08:57:46;19.90;44.20
80220;DHT22;70247;37.958;23.722;2023-11-18T09:00:38;19.80;43.70
80220;DHT22;70247;37.958;23.722;2023-11-18T09:03:13;20.00;43.50
80220;DHT22;70247;37.958;23.722;2023-11-18T09:06:03;19.70;43.80
80220;DHT22;70247;37.958;23.722;2023-11-18T09:08:30;19.70;43.50
80220;DHT22;70247;37.958;23.722;2023-11-18T09:11:07;20.30;42.10
80220;DHT22;70247;37.958;23.722;2023-11-18T09:13:33;21.20;39.60
80220;DHT22;70247;37.958;23.722;2023-11-18T09:16:00;22.40;39.00
80220;DHT22;70247;37.958;23.722;2023-11-18T09:18:27;22.80;36.90
80220;DHT22;70247;37.958;23.722;2023-11-18T09:20:53;22.70;36.30
80220;DHT22;70247;37.958;23.722;2023-11-18T09:23:22;21.70;37.60
80220;DHT22;70247;37.958;23.722;2023-11-18T09:25:53;21.10;38.80
80220;DHT22;70247;37.958;23.722;2023-11-18T09:28:23;20.50;40.50
80220;DHT22;70247;37.958;23.722;2023-11-18T09:30:49;21.30;37.90
80220;DHT22;70247;37.958;23.722;2023-11-18T09:33:18;22.50;36.70
80220;DHT22;70247;37.958;23.722;2023-11-18T09:35:54;22.80;34.80
80220;DHT22;70247;37.958;23.722;2023-11-18T09:38:24;23.50;34.40
80220;DHT22;70247;37.958;23.722;2023-11-18T09:40:50;22.80;35.30
80220;DHT22;70247;37.958;23.722;2023-11-18T09:43:18;22.00;36.30
80220;DHT22;70247;37.958;23.722;2023-11-18T09:45:44;21.40;37.50
80220;DHT22;70247;37.958;23.722;2023-11-18T09:48:14;21.50;38.60
80220;DHT22;70247;37.958;23.722;2023-11-18T09:50:46;21.80;37.00
80220;DHT22;70247;37.958;23.722;2023-11-18T09:53:14;22.40;36.10
80220;DHT22;70247;37.958;23.722;2023-11-18T09:55:45;23.10;35.20
80220;DHT22;70247;37.958;23.722;2023-11-18T09:58:15;22.90;35.00
80220;DHT22;70247;37.958;23.722;2023-11-18T10:00:43;23.20;34.90
80220;DHT22;70247;37.958;23.722;2023-11-18T10:03:09;24.50;32.10
80220;DHT22;70247;37.958;23.722;2023-11-18T10:05:39;25.70;29.90
80220;DHT22;70247;37.958;23.722;2023-11-18T10:08:05;25.60;29.10
80220;DHT22;70247;37.958;23.722;2023-11-18T10:10:31;24.60;30.00
80220;DHT22;70247;37.958;23.722;2023-11-18T10:13:03;25.00;29.50
80220;DHT22;70247;37.958;23.722;2023-11-18T10:15:33;26.00;29.40
80220;DHT22;70247;37.958;23.722;2023-11-18T10:18:01;26.10;28.40
80220;DHT22;70247;37.958;23.722;2023-11-18T10:23:05;28.40;26.90
80220;DHT22;70247;37.958;23.722;2023-11-18T10:25:31;29.40;26.50
80220;DHT22;70247;37.958;23.722;2023-11-18T10:27:56;30.50;25.70
80220;DHT22;70247;37.958;23.722;2023-11-18T10:30:22;30.50;24.70
80220;DHT22;70247;37.958;23.722;2023-11-18T10:32:59;30.60;24.50
80220;DHT22;70247;37.958;23.722;2023-11-18T10:35:34;28.40;26.10
80220;DHT22;70247;37.958;23.722;2023-11-18T10:38:03;27.00;27.60
80220;DHT22;70247;37.958;23.722;2023-11-18T10:40:32;25.70;28.60
80220;DHT22;70247;37.958;23.722;2023-11-18T10:43:02;24.60;29.60
80220;DHT22;70247;37.958;23.722;2023-11-18T10:45:34;23.50;30.70
80220;DHT22;70247;37.958;23.722;2023-11-18T10:48:07;22.90;31.10
80220;DHT22;70247;37.958;23.722;2023-11-18T10:50:33;22.00;32.20
80220;DHT22;70247;37.958;23.722;2023-11-18T10:53:01;22.40;34.20
80220;DHT22;70247;37.958;23.722;2023-11-18T10:55:35;23.90;31.80
80220;DHT22;70247;37.958;23.722;2023-11-18T10:58:01;24.60;29.00
80220;DHT22;70247;37.958;23.722;2023-11-18T11:00:27;24.20;29.70
80220;DHT22;70247;37.958;23.722;2023-11-18T11:02:59;23.80;30.20
80220;DHT22;70247;37.958;23.722;2023-11-18T11:05:28;23.30;30.50
80220;DHT22;70247;37.958;23.722;2023-11-18T11:07:58;22.70;32.10
80220;DHT22;70247;37.958;23.722;2023-11-18T11:10:24;22.10;31.90
80220;DHT22;70247;37.958;23.722;2023-11-18T11:12:54;21.70;32.60
80220;DHT22;70247;37.958;23.722;2023-11-18T11:15:30;21.30;33.70
80220;DHT22;70247;37.958;23.722;2023-11-18T11:18:07;21.00;33.90
80220;DHT22;70247;37.958;23.722;2023-11-18T11:20:47;20.60;34.70
80220;DHT22;70247;37.958;23.722;2023-11-18T11:26:01;20.00;35.30
80220;DHT22;70247;37.958;23.722;2023-11-18T11:28:33;20.30;36.90
80220;DHT22;70247;37.958;23.722;2023-11-18T11:31:11;20.00;35.10
80220;DHT22;70247;37.958;23.722;2023-11-18T11:33:47;21.00;34.80
80220;DHT22;70247;37.958;23.722;2023-11-18T11:36:21;21.80;32.90
80220;DHT22;70247;37.958;23.722;2023-11-18T11:38:52;22.50;32.80
80220;DHT22;70247;37.958;23.722;2023-11-18T11:41:17;23.30;32.50
80220;DHT22;70247;37.958;23.722;2023-11-18T11:43:52;23.60;30.30
80220;DHT22;70247;37.958;23.722;2023-11-18T11:46:24;24.20;31.30
80220;DHT22;70247;37.958;23.722;2023-11-18T11:48:50;24.70;29.70
80220;DHT22;70247;37.958;23.722;2023-11-18T11:53:52;24.50;30.20
80220;DHT22;70247;37.958;23.722;2023-11-18T11:56:18;23.60;30.20
80220;DHT22;70247;37.958;23.722;2023-11-18T11:58:49;22.70;30.80
80220;DHT22;70247;37.958;23.722;2023-11-18T12:01:27;21.80;32.30
80220;DHT22;70247;37.958;23.722;2023-11-18T12:03:57;21.50;33.40
80220;DHT22;70247;37.958;23.722;2023-11-18T12:06:26;21.60;33.10
80220;DHT22;70247;37.958;23.722;2023-11-18T12:08:52;21.30;32.90
80220;DHT22;70247;37.958;23.722;2023-11-18T12:11:18;21.40;33.30
80220;DHT22;70247;37.958;23.722;2023-11-18T12:14:04;20.90;33.40
80220;DHT22;70247;37.958;23.722;2023-11-18T12:17:07;20.60;33.30
80220;DHT22;70247;37.958;23.722;2023-11-18T12:19:38;20.40;33.70
80220;DHT22;70247;37.958;23.722;2023-11-18T12:22:19;20.30;34.80
80220;DHT22;70247;37.958;23.722;2023-11-18T12:25:28;20.50;33.60
80220;DHT22;70247;37.958;23.722;2023-11-18T12:32:59;19.90;31.30
80220;DHT22;70247;37.958;23.722;2023-11-18T12:41:01;20.00;32.50
80220;DHT22;70247;37.958;23.722;2023-11-18T12:46:24;20.10;33.10
80220;DHT22;70247;37.958;23.722;2023-11-18T12:49:01;19.70;32.90
80220;DHT22;70247;37.958;23.722;2023-11-18T12:51:27;19.80;33.40
80220;DHT22;70247;37.958;23.722;2023-11-18T12:53:53;19.50;34.00
80220;DHT22;70247;37.958;23.722;2023-11-18T12:56:19;19.40;34.00
80220;DHT22;70247;37.958;23.722;2023-11-18T12:58:47;19.40;33.40
80220;DHT22;70247;37.958;23.722;2023-11-18T13:01:13;19.40;33.00
80220;DHT22;70247;37.958;23.722;2023-11-18T13:03:42;19.30;32.70
80220;DHT22;70247;37.958;23.722;2023-11-18T13:06:11;19.40;33.50
80220;DHT22;70247;37.958;23.722;2023-11-18T13:08:42;19.40;33.30
80220;DHT22;70247;37.958;23.722;2023-11-18T13:11:08;19.30;32.50
80220;DHT22;70247;37.958;23.722;2023-11-18T13:13:45;19.30;33.20
80220;DHT22;70247;37.958;23.722;2023-11-18T13:16:12;19.20;33.50
80220;DHT22;70247;37.958;23.722;2023-11-18T13:18:46;19.30;34.20
80220;DHT22;70247;37.958;23.722;2023-11-18T13:21:15;19.50;33.10
80220;DHT22;70247;37.958;23.722;2023-11-18T13:23:47;19.40;33.20
80220;DHT22;70247;37.958;23.722;2023-11-18T13:26:13;19.50;32.90
80220;DHT22;70247;37.958;23.722;2023-11-18T13:28:39;19.60;32.90
80220;DHT22;70247;37.958;23.722;2023-11-18T13:31:05;19.60;33.50
80220;DHT22;70247;37.958;23.722;2023-11-18T13:33:38;19.80;33.30
80220;DHT22;70247;37.958;23.722;2023-11-18T13:36:04;19.80;33.70
80220;DHT22;70247;37.958;23.722;2023-11-18T13:38:30;19.50;31.70
80220;DHT22;70247;37.958;23.722;2023-11-18T13:40:56;19.40;31.80
80220;DHT22;70247;37.958;23.722;2023-11-18T13:43:22;19.20;31.20
80220;DHT22;70247;37.958;23.722;2023-11-18T13:45:51;19.20;31.90
80220;DHT22;70247;37.958;23.722;2023-11-18T13:48:18;18.90;30.70
80220;DHT22;70247;37.958;23.722;2023-11-18T13:50:44;19.00;31.50
80220;DHT22;70247;37.958;23.722;2023-11-18T13:53:10;19.00;31.80
80220;DHT22;70247;37.958;23.722;2023-11-18T13:55:36;19.20;31.60
80220;DHT22;70247;37.958;23.722;2023-11-18T13:58:04;18.90;31.20
80220;DHT22;70247;37.958;23.722;2023-11-18T14:00:30;18.70;31.80
80220;DHT22;70247;37.958;23.722;2023-11-18T14:02:57;18.40;31.30
80220;DHT22;70247;37.958;23.722;2023-11-18T14:05:23;18.40;31.60
80220;DHT22;70247;37.958;23.722;2023-11-18T14:07:53;18.50;32.00
80220;DHT22;70247;37.958;23.722;2023-11-18T14:10:21;18.60;32.00
80220;DHT22;70247;37.958;23.722;2023-11-18T14:13:01;18.60;31.70
80220;DHT22;70247;37.958;23.722;2023-11-18T14:15:28;18.60;31.50
80220;DHT22;70247;37.958;23.722;2023-11-18T14:17:53;18.80;32.50
80220;DHT22;70247;37.958;23.722;2023-11-18T14:20:19;18.70;31.30
80220;DHT22;70247;37.958;23.722;2023-11-18T14:22:48;18.50;30.40
80220;DHT22;70247;37.958;23.722;2023-11-18T14:25:14;18.60;31.10
80220;DHT22;70247;37.958;23.722;2023-11-18T14:27:39;18.60;31.20
80220;DHT22;70247;37.958;23.722;2023-11-18T14:30:06;18.60;31.50
80220;DHT22;70247;37.958;23.722;2023-11-18T14:32:34;18.40;32.50
80220;DHT22;70247;37.958;23.722;2023-11-18T14:35:00;18.30;31.90
80220;DHT22;70247;37.958;23.722;2023-11-18T14:37:26;18.40;32.00
80220;DHT22;70247;37.958;23.722;2023-11-18T14:39:51;18.30;31.70
80220;DHT22;70247;37.958;23.722;2023-11-18T14:42:19;18.20;31.80
80220;DHT22;70247;37.958;23.722;2023-11-18T14:44:46;18.00;32.40
80220;DHT22;70247;37.958;23.722;2023-11-18T14:47:12;18.10;32.50
80220;DHT22;70247;37.958;23.722;2023-11-18T14:49:37;18.10;32.90
80220;DHT22;70247;37.958;23.722;2023-11-18T14:52:03;17.90;33.00
80220;DHT22;70247;37.958;23.722;2023-11-18T14:54:29;17.80;33.70
80220;DHT22;70247;37.958;23.722;2023-11-18T14:57:01;17.80;33.80
80220;DHT22;70247;37.958;23.722;2023-11-18T14:59:26;17.70;33.60
80220;DHT22;70247;37.958;23.722;2023-11-18T15:01:52;17.70;34.00
80220;DHT22;70247;37.958;23.722;2023-11-18T15:04:23;17.80;33.60
80220;DHT22;70247;37.958;23.722;2023-11-18T15:06:49;17.90;33.60
80220;DHT22;70247;37.958;23.722;2023-11-18T15:09:18;17.90;33.90
80220;DHT22;70247;37.958;23.722;2023-11-18T15:11:43;17.90;34.10
80220;DHT22;70247;37.958;23.722;2023-11-18T15:14:09;17.80;33.60
80220;DHT22;70247;37.958;23.722;2023-11-18T15:16:37;17.80;33.80
80220;DHT22;70247;37.958;23.722;2023-11-18T15:19:03;17.90;33.70
80220;DHT22;70247;37.958;23.722;2023-11-18T15:21:28;17.90;33.90
80220;DHT22;70247;37.958;23.722;2023-11-18T15:23:55;17.80;34.60
80220;DHT22;70247;37.958;23.722;2023-11-18T15:26:26;17.80;34.40
80220;DHT22;70247;37.958;23.722;2023-11-18T15:28:51;17.90;34.00
80220;DHT22;70247;37.958;23.722;2023-11-18T15:31:18;17.80;33.80
80220;DHT22;70247;37.958;23.722;2023-11-18T15:33:44;17.80;34.00
80220;DHT22;70247;37.958;23.722;2023-11-18T15:36:11;17.90;34.20
80220;DHT22;70247;37.958;23.722;2023-11-18T15:38:37;17.90;33.90
80220;DHT22;70247;37.958;23.722;2023-11-18T15:41:03;17.80;34.80
80220;DHT22;70247;37.958;23.722;2023-11-18T15:43:29;17.80;34.30